Time;durP1;ratioP1;P1;durP2;ratioP2;P2;SDS_P1;SDS_P2;PMS_P1;PMS_P2;Temp;Humidity;BMP_temperature;BMP_pressure;BME280_temperature;BME280_humidity;BME280_pressure;Samples;Min_cycle;Max_cycle;Signal;HPM_P1;HPM_P2
2022/04/09 00:02:24;;;;;;;11.52;3.97;;;5.20;82.60;;;;;;5031056;28;20472;-64
2022/04/09 00:04:50;;;;;;;14.48;3.70;;;5.30;82.30;;;;;;5031406;28;20041;-64
2022/04/09 00:07:16;;;;;;;14.07;2.83;;;5.30;82.10;;;;;;5050906;28;20191;-64
2022/04/09 00:09:42;;;;;;;5.85;2.60;;;5.40;81.60;;;;;;5013634;28;1079268;-65
2022/04/09 00:12:08;;;;;;;10.02;2.90;;;5.30;81.40;;;;;;5051286;28;20041;-64
2022/04/09 00:14:34;;;;;;;7.22;3.58;;;5.30;81.50;;;;;;5050885;28;20079;-64
2022/04/09 00:17:00;;;;;;;8.35;2.63;;;5.40;81.20;;;;;;5033439;28;20084;-63
2022/04/09 00:19:25;;;;;;;8.38;2.40;;;5.30;80.70;;;;;;5031550;28;20045;-64
2022/04/09 00:21:51;;;;;;;9.60;2.80;;;5.30;80.60;;;;;;5048057;28;20076;-65
2022/04/09 00:24:17;;;;;;;5.82;2.40;;;5.30;80.40;;;;;;5050452;28;20041;-65
2022/04/09 00:26:42;;;;;;;8.98;3.05;;;5.30;80.40;;;;;;5049301;28;20041;-65
2022/04/09 00:29:08;;;;;;;16.85;2.90;;;5.30;80.50;;;;;;5051379;28;20067;-65
2022/04/09 00:31:34;;;;;;;12.48;3.00;;;5.30;80.70;;;;;;5048579;28;20056;-65
2022/04/09 00:34:01;;;;;;;9.85;3.22;;;5.30;81.00;;;;;;5029967;28;20088;-65
2022/04/09 00:36:26;;;;;;;9.77;4.00;;;5.20;81.20;;;;;;5043457;28;20053;-65
2022/04/09 00:38:52;;;;;;;7.30;3.13;;;5.30;81.20;;;;;;5050817;28;20045;-64
2022/04/09 00:41:18;;;;;;;8.90;3.10;;;5.20;81.30;;;;;;5044711;28;20036;-65
2022/04/09 00:43:44;;;;;;;9.32;3.78;;;5.20;81.80;;;;;;5050212;28;20045;-65
2022/04/09 00:46:14;;;;;;;5.38;3.50;;;5.10;82.00;;;;;;5032514;28;20052;-65
2022/04/09 00:48:41;;;;;;;13.18;3.40;;;5.10;82.00;;;;;;5031014;28;20516;-65
2022/04/09 00:51:07;;;;;;;11.52;3.72;;;5.10;82.30;;;;;;5037832;28;20367;-65
2022/04/09 00:53:41;;;;;;;7.55;3.10;;;5.20;82.20;;;;;;5030277;28;20038;-65
2022/04/09 00:56:19;;;;;;;7.72;2.78;;;5.20;82.10;;;;;;5047454;28;20123;-66
2022/04/09 00:59:01;;;;;;;5.45;2.05;;;5.20;81.80;;;;;;5050291;28;20421;-65
2022/04/09 01:01:28;;;;;;;4.90;1.65;;;5.30;79.60;;;;;;5048143;28;20052;-66
2022/04/09 01:03:55;;;;;;;5.70;1.77;;;5.30;79.20;;;;;;5049283;28;20079;-65
2022/04/09 01:06:21;;;;;;;8.23;2.25;;;5.30;79.10;;;;;;5032037;28;20041;-65
2022/04/09 01:08:47;;;;;;;6.45;1.63;;;5.30;79.10;;;;;;5029991;28;20064;-65
2022/04/09 01:11:14;;;;;;;6.55;1.80;;;5.30;79.10;;;;;;5045769;28;20049;-65
2022/04/09 01:13:41;;;;;;;8.80;2.17;;;5.20;79.30;;;;;;5049591;28;20033;-66
2022/04/09 01:16:07;;;;;;;5.75;2.10;;;5.20;79.70;;;;;;5048801;28;20091;-65
2022/04/09 01:18:34;;;;;;;8.60;2.40;;;5.20;80.10;;;;;;5049830;28;20067;-66
2022/04/09 01:21:01;;;;;;;8.98;2.90;;;5.20;80.30;;;;;;5046126;28;20040;-63
2022/04/09 01:23:28;;;;;;;9.90;3.40;;;5.10;81.00;;;;;;5048795;28;20040;-65
2022/04/09 01:25:56;;;;;;;11.77;4.22;;;5.10;81.60;;;;;;5036438;28;20042;-65
2022/04/09 01:28:22;;;;;;;10.43;3.15;;;5.10;82.20;;;;;;5030585;28;20045;-65
2022/04/09 01:30:48;;;;;;;13.88;4.38;;;5.10;82.00;;;;;;5041380;28;20055;-65
2022/04/09 01:33:15;;;;;;;8.27;3.28;;;5.10;82.50;;;;;;5049381;28;20051;-66
2022/04/09 01:35:41;;;;;;;11.05;3.65;;;5.10;82.70;;;;;;5047946;28;20126;-65
2022/04/09 01:38:07;;;;;;;12.75;4.07;;;5.10;82.80;;;;;;5049110;28;20048;-65
2022/04/09 01:40:32;;;;;;;8.63;3.78;;;5.10;83.40;;;;;;5047790;28;20049;-65
2022/04/09 01:42:58;;;;;;;12.10;4.10;;;5.10;83.40;;;;;;5049588;28;20045;-65
2022/04/09 01:45:24;;;;;;;15.07;6.05;;;5.10;83.30;;;;;;5048957;28;20549;-66
2022/04/09 01:47:49;;;;;;;8.82;3.78;;;5.10;83.70;;;;;;5049471;28;20139;-65
2022/04/09 01:50:15;;;;;;;13.68;3.50;;;5.10;83.80;;;;;;5048714;28;20032;-65
2022/04/09 01:52:41;;;;;;;10.95;3.78;;;5.10;83.50;;;;;;5038096;28;20044;-66
2022/04/09 01:55:07;;;;;;;11.55;3.28;;;5.10;83.50;;;;;;5033739;28;20056;-65
2022/04/09 01:57:34;;;;;;;15.10;5.80;;;5.10;83.00;;;;;;5047948;28;20048;-65
2022/04/09 01:59:59;;;;;;;8.20;3.30;;;5.10;82.60;;;;;;5047904;28;20073;-65
2022/04/09 02:02:25;;;;;;;12.52;3.38;;;5.10;82.50;;;;;;5049526;28;20079;-65
2022/04/09 02:04:51;;;;;;;9.68;3.22;;;5.10;82.30;;;;;;5049763;28;20627;-65
2022/04/09 02:07:17;;;;;;;9.18;2.78;;;5.10;82.00;;;;;;5049137;28;20072;-65
2022/04/09 02:09:42;;;;;;;9.10;3.05;;;5.10;82.00;;;;;;5047271;28;20127;-66
2022/04/09 02:12:08;;;;;;;9.23;2.75;;;5.30;81.80;;;;;;5028830;28;20133;-65
2022/04/09 02:14:34;;;;;;;5.45;2.67;;;5.30;81.40;;;;;;5029850;28;20038;-65
2022/04/09 02:16:59;;;;;;;9.48;3.15;;;5.20;81.30;;;;;;5045264;28;20068;-66
2022/04/09 02:19:25;;;;;;;6.90;2.88;;;5.30;80.80;;;;;;5029569;28;20041;-65
2022/04/09 02:21:50;;;;;;;10.23;4.45;;;5.30;81.10;;;;;;5049019;28;20048;-65
2022/04/09 02:24:16;;;;;;;5.47;3.17;;;5.30;81.80;;;;;;5049306;28;20114;-65
2022/04/09 02:26:42;;;;;;;10.38;3.67;;;5.20;82.50;;;;;;5040460;28;20041;-65
2022/04/09 02:29:07;;;;;;;8.68;3.67;;;5.10;83.10;;;;;;5043768;28;20045;-65
2022/04/09 02:31:33;;;;;;;10.70;4.45;;;5.10;83.60;;;;;;5046673;28;20045;-65
2022/04/09 02:33:59;;;;;;;7.03;3.65;;;5.00;83.80;;;;;;5044451;28;20045;-65
2022/04/09 02:36:25;;;;;;;7.05;3.70;;;5.00;83.60;;;;;;5029362;28;20064;-65
2022/04/09 02:38:50;;;;;;;7.50;3.28;;;4.90;83.00;;;;;;5030699;28;20520;-65
2022/04/09 02:41:16;;;;;;;10.07;3.10;;;4.90;83.00;;;;;;5034733;28;20045;-65
2022/04/09 02:43:43;;;;;;;10.50;3.03;;;4.90;82.70;;;;;;5041653;28;20509;-65
2022/04/09 02:46:09;;;;;;;11.10;3.55;;;4.80;82.60;;;;;;5034319;28;20057;-65
2022/04/09 02:48:34;;;;;;;11.63;3.85;;;4.70;82.80;;;;;;5039550;28;20041;-65
2022/04/09 02:51:00;;;;;;;7.43;3.38;;;4.70;83.10;;;;;;5047374;28;20472;-65
2022/04/09 02:53:26;;;;;;;9.77;3.80;;;4.60;83.40;;;;;;5039856;28;20049;-65
2022/04/09 02:55:51;;;;;;;18.13;3.83;;;4.70;83.50;;;;;;5030496;28;20049;-65
2022/04/09 02:58:17;;;;;;;14.60;3.80;;;4.70;83.50;;;;;;5050095;28;20047;-66
2022/04/09 03:00:42;;;;;;;9.20;3.72;;;4.60;83.70;;;;;;5051988;28;20041;-66
2022/04/09 03:03:08;;;;;;;9.40;3.05;;;4.60;83.60;;;;;;5047273;28;20041;-66
2022/04/09 03:05:34;;;;;;;11.93;3.83;;;4.60;83.60;;;;;;5032778;28;20136;-65
2022/04/09 03:07:59;;;;;;;12.45;3.35;;;4.60;83.60;;;;;;5035959;28;20060;-65
2022/04/09 03:10:25;;;;;;;11.85;3.70;;;4.60;83.70;;;;;;5043761;28;20037;-66
2022/04/09 03:12:51;;;;;;;8.73;3.40;;;4.60;83.90;;;;;;5036371;28;20061;-65
2022/04/09 03:15:17;;;;;;;11.07;3.72;;;4.50;84.20;;;;;;5048589;28;20516;-65
2022/04/09 03:17:43;;;;;;;16.75;6.43;;;4.40;84.50;;;;;;5051855;28;20033;-65
2022/04/09 03:20:10;;;;;;;8.30;3.65;;;4.40;84.50;;;;;;5050451;28;20041;-65
2022/04/09 03:22:35;;;;;;;9.85;3.75;;;4.40;84.50;;;;;;5052169;28;20556;-65
2022/04/09 03:25:03;;;;;;;13.32;3.53;;;4.40;84.60;;;;;;5045913;28;20041;-66
2022/04/09 03:27:29;;;;;;;5.93;3.15;;;4.40;84.50;;;;;;5044800;28;20378;-65
2022/04/09 03:29:55;;;;;;;12.85;3.35;;;4.50;84.50;;;;;;5049029;28;20116;-66
2022/04/09 03:32:21;;;;;;;12.23;3.20;;;4.50;84.10;;;;;;5049778;28;20463;-65
2022/04/09 03:34:47;;;;;;;10.90;2.90;;;4.60;83.80;;;;;;5047704;28;20049;-65
2022/04/09 03:37:13;;;;;;;8.38;3.10;;;4.60;83.50;;;;;;5031379;28;21050;-65
2022/04/09 03:39:41;;;;;;;5.82;2.95;;;4.70;83.30;;;;;;5049544;28;20041;-65
2022/04/09 03:42:07;;;;;;;9.38;3.17;;;4.70;83.10;;;;;;5050701;28;20049;-65
2022/04/09 03:44:33;;;;;;;10.25;4.13;;;4.70;83.10;;;;;;5050184;28;20094;-65
2022/04/09 03:47:03;;;;;;;7.50;3.03;;;4.60;83.20;;;;;;5031234;28;20513;-65
2022/04/09 03:49:33;;;;;;;8.52;3.03;;;4.60;83.30;;;;;;5029849;28;20049;-65
2022/04/09 03:51:59;;;;;;;12.02;3.10;;;4.60;83.30;;;;;;5046894;28;20561;-65
2022/04/09 03:54:25;;;;;;;11.32;3.40;;;4.60;83.40;;;;;;5050378;28;20552;-64
2022/04/09 03:56:52;;;;;;;8.48;3.05;;;4.60;83.40;;;;;;5050237;28;20127;-65
2022/04/09 03:59:18;;;;;;;20.65;4.28;;;4.60;83.40;;;;;;5051034;28;20538;-65
2022/04/09 04:01:47;;;;;;;11.82;3.60;;;4.60;83.40;;;;;;5048670;28;20524;-66
2022/04/09 04:04:12;;;;;;;13.73;4.00;;;4.60;83.50;;;;;;5029603;28;20057;-65
2022/04/09 04:06:38;;;;;;;12.63;4.00;;;4.60;83.60;;;;;;5045291;28;20426;-65
2022/04/09 04:09:04;;;;;;;11.98;4.35;;;4.60;83.90;;;;;;5042019;28;20045;-65
2022/04/09 04:11:30;;;;;;;14.45;5.00;;;4.80;84.40;;;;;;5037862;28;20154;-65
2022/04/09 04:13:56;;;;;;;14.80;5.00;;;4.90;84.70;;;;;;5039654;28;20036;-65
2022/04/09 04:16:22;;;;;;;14.57;5.00;;;4.90;84.90;;;;;;5034702;28;20045;-65
2022/04/09 04:18:47;;;;;;;13.88;4.63;;;4.90;85.10;;;;;;5034394;28;20076;-64
2022/04/09 04:21:13;;;;;;;10.30;4.18;;;4.90;84.80;;;;;;5030918;28;20470;-65
2022/04/09 04:23:39;;;;;;;10.05;4.15;;;4.90;84.60;;;;;;5034162;28;20073;-64
2022/04/09 04:26:04;;;;;;;5.55;3.25;;;4.80;84.10;;;;;;5047011;28;20037;-64
2022/04/09 04:28:30;;;;;;;12.18;3.67;;;4.90;83.80;;;;;;5028935;28;20128;-65
2022/04/09 04:30:55;;;;;;;12.30;3.53;;;4.80;83.40;;;;;;5049437;28;20037;-65
2022/04/09 04:33:21;;;;;;;10.27;3.05;;;4.70;83.00;;;;;;5039144;28;20406;-64
2022/04/09 04:35:47;;;;;;;7.80;3.67;;;4.70;83.10;;;;;;5037745;28;20041;-65
2022/04/09 04:38:12;;;;;;;8.02;3.38;;;4.70;82.90;;;;;;5048591;28;20058;-65
2022/04/09 04:40:39;;;;;;;6.30;3.03;;;4.70;82.90;;;;;;5050313;28;20045;-66
2022/04/09 04:43:05;;;;;;;8.68;2.80;;;4.60;83.00;;;;;;5047579;28;20037;-65
2022/04/09 04:45:31;;;;;;;7.63;3.00;;;4.70;83.10;;;;;;5048951;28;20466;-64
2022/04/09 04:47:57;;;;;;;6.60;2.88;;;4.60;83.10;;;;;;5036119;28;20498;-64
2022/04/09 04:50:23;;;;;;;7.40;3.35;;;4.70;83.40;;;;;;5047633;28;20065;-65
2022/04/09 04:52:49;;;;;;;8.77;4.32;;;4.80;83.60;;;;;;5038048;28;20053;-64
2022/04/09 04:55:15;;;;;;;8.88;3.33;;;4.80;84.10;;;;;;5033703;28;20053;-64
2022/04/09 04:57:50;;;;;;;18.15;5.20;;;4.80;84.50;;;;;;5029557;28;20135;-66
2022/04/09 05:00:19;;;;;;;9.02;4.03;;;4.70;84.70;;;;;;5047076;28;20056;-65
2022/04/09 05:02:45;;;;;;;13.23;3.80;;;4.80;84.80;;;;;;5035590;28;20052;-65
2022/04/09 05:05:11;;;;;;;14.82;3.65;;;4.90;84.90;;;;;;5045796;28;20037;-64
2022/04/09 05:07:55;;;;;;;8.45;3.40;;;4.80;85.10;;;;;;5044742;28;20382;-64
2022/04/09 05:10:23;;;;;;;13.63;3.78;;;4.80;85.10;;;;;;5045539;28;20603;-65
2022/04/09 05:12:51;;;;;;;10.30;3.83;;;4.90;84.60;;;;;;5049100;28;20085;-65
2022/04/09 05:15:17;;;;;;;17.17;3.72;;;4.90;84.40;;;;;;5050617;28;20051;-64
2022/04/09 05:17:44;;;;;;;12.18;3.90;;;4.90;83.80;;;;;;5029849;28;20122;-65
2022/04/09 05:20:12;;;;;;;15.60;3.10;;;5.00;83.30;;;;;;5041225;28;20044;-63
2022/04/09 05:22:41;;;;;;;6.97;3.10;;;5.00;83.30;;;;;;5047562;28;20049;-65
2022/04/09 05:25:07;;;;;;;7.75;3.10;;;4.90;82.90;;;;;;5043421;28;20125;-64
2022/04/09 05:27:33;;;;;;;13.63;3.35;;;4.90;82.90;;;;;;5048498;28;20040;-64
2022/04/09 05:29:59;;;;;;;10.68;3.58;;;4.90;83.00;;;;;;5048401;28;20037;-64
2022/04/09 05:32:25;;;;;;;12.05;5.22;;;4.90;83.10;;;;;;5048321;28;20045;-63
2022/04/09 05:34:50;;;;;;;13.48;3.65;;;5.00;83.20;;;;;;5046527;28;20080;-64
2022/04/09 05:37:17;;;;;;;13.45;5.07;;;5.00;83.10;;;;;;5046285;28;20414;-63
2022/04/09 05:39:43;;;;;;;8.25;3.35;;;5.00;83.30;;;;;;5047637;28;20041;-63
2022/04/09 05:42:12;;;;;;;8.55;3.90;;;5.00;83.60;;;;;;5033867;28;20049;-64
2022/04/09 05:44:37;;;;;;;13.07;3.83;;;5.00;84.00;;;;;;5039422;28;20060;-64
2022/04/09 05:47:03;;;;;;;14.95;3.50;;;5.10;84.10;;;;;;5046021;28;20033;-64
2022/04/09 05:49:29;;;;;;;14.70;4.15;;;5.00;84.20;;;;;;5048634;28;20152;-64
2022/04/09 05:51:55;;;;;;;13.05;4.05;;;5.10;84.20;;;;;;5034908;28;20116;-62
2022/04/09 05:54:20;;;;;;;6.97;3.30;;;5.20;84.10;;;;;;5033199;28;20166;-64
2022/04/09 05:56:46;;;;;;;13.60;4.63;;;5.20;83.90;;;;;;5042184;28;20040;-64
2022/04/09 05:59:12;;;;;;;16.95;3.92;;;5.30;83.50;;;;;;5045050;28;20047;-64
2022/04/09 06:01:38;;;;;;;14.73;4.70;;;5.40;83.50;;;;;;5029055;28;20046;-63
2022/04/09 06:04:03;;;;;;;15.55;4.28;;;5.50;83.00;;;;;;5034521;28;20041;-63
2022/04/09 06:06:29;;;;;;;12.85;4.35;;;5.60;83.10;;;;;;5049208;28;20052;-64
2022/04/09 06:08:55;;;;;;;15.05;4.53;;;5.70;83.10;;;;;;5046512;28;20133;-64
2022/04/09 06:11:21;;;;;;;11.60;3.20;;;5.80;83.10;;;;;;5032969;28;20049;-64
2022/04/09 06:13:47;;;;;;;13.15;3.55;;;5.90;81.60;;;;;;5048360;28;20040;-63
2022/04/09 06:16:12;;;;;;;13.00;3.95;;;5.90;81.20;;;;;;5048651;28;20049;-64
2022/04/09 06:18:41;;;;;;;14.80;3.70;;;5.90;81.50;;;;;;5048587;28;20055;-63
2022/04/09 06:21:08;;;;;;;8.75;3.20;;;5.90;81.80;;;;;;5033918;28;20081;-64
2022/04/09 06:23:34;;;;;;;8.25;2.40;;;5.90;81.30;;;;;;5044370;28;20604;-63
2022/04/09 06:26:00;;;;;;;13.23;3.30;;;5.80;81.20;;;;;;5047465;28;20045;-64
2022/04/09 06:28:26;;;;;;;13.43;3.92;;;5.70;81.40;;;;;;5040650;28;20045;-63
2022/04/09 06:30:52;;;;;;;15.95;5.53;;;5.70;81.40;;;;;;5036306;28;20037;-63
2022/04/09 06:33:19;;;;;;;7.75;3.35;;;5.60;81.50;;;;;;5031013;28;20065;-63
2022/04/09 06:35:47;;;;;;;12.15;4.38;;;5.60;82.00;;;;;;5048453;28;20053;-63
2022/04/09 06:38:13;;;;;;;11.52;3.47;;;5.70;82.50;;;;;;5051441;28;20057;-64
2022/04/09 06:40:39;;;;;;;14.70;4.63;;;5.70;82.50;;;;;;5052148;28;20466;-63
2022/04/09 06:43:05;;;;;;;9.63;3.85;;;5.80;82.70;;;;;;5051228;28;20049;-63
2022/04/09 06:45:30;;;;;;;15.95;4.10;;;5.90;82.70;;;;;;5052712;28;20040;-62
2022/04/09 06:47:56;;;;;;;12.15;3.78;;;6.00;82.20;;;;;;5052660;28;20510;-63
2022/04/09 06:50:22;;;;;;;10.68;3.25;;;6.00;81.70;;;;;;5051534;28;20409;-64
2022/04/09 06:52:47;;;;;;;16.50;2.95;;;5.90;81.30;;;;;;5051808;28;20495;-63
2022/04/09 06:55:13;;;;;;;7.18;2.60;;;5.90;80.60;;;;;;5051305;28;20052;-64
2022/04/09 06:57:41;;;;;;;10.07;3.63;;;5.90;80.40;;;;;;5051947;28;20371;-63
2022/04/09 07:00:09;;;;;;;7.72;2.80;;;5.90;80.40;;;;;;5051357;28;20182;-62
2022/04/09 07:02:35;;;;;;;13.35;3.50;;;6.00;80.20;;;;;;5050469;28;20059;-62
2022/04/09 07:05:00;;;;;;;8.10;2.92;;;6.10;80.40;;;;;;5051599;28;20417;-63
2022/04/09 07:07:27;;;;;;;6.28;2.72;;;6.10;80.40;;;;;;5052113;28;20052;-63
2022/04/09 07:10:04;;;;;;;12.93;3.10;;;6.10;80.40;;;;;;5050864;28;20059;-63
2022/04/09 07:12:30;;;;;;;11.20;2.70;;;6.20;80.20;;;;;;5050270;28;20044;-62
2022/04/09 07:14:56;;;;;;;16.60;2.80;;;6.30;79.60;;;;;;5051616;28;20052;-62
2022/04/09 07:17:22;;;;;;;9.15;4.07;;;6.40;78.80;;;;;;5056148;28;20400;-63
2022/04/09 07:19:49;;;;;;;7.55;2.50;;;6.50;78.00;;;;;;5059317;28;20186;-63
2022/04/09 07:22:15;;;;;;;10.95;2.03;;;6.60;77.60;;;;;;5051795;28;20039;-63
2022/04/09 07:24:41;;;;;;;11.10;2.00;;;6.60;77.30;;;;;;5051158;28;20116;-64
2022/04/09 07:27:06;;;;;;;11.98;3.58;;;6.60;77.40;;;;;;5050472;28;20094;-64
2022/04/09 07:29:32;;;;;;;14.25;2.85;;;6.70;77.60;;;;;;5050915;28;20132;-63
2022/04/09 07:31:58;;;;;;;8.65;2.45;;;6.80;77.20;;;;;;5050187;28;20037;-64
2022/04/09 07:34:23;;;;;;;15.18;2.85;;;6.90;77.40;;;;;;5051204;28;20410;-65
2022/04/09 07:36:49;;;;;;;29.42;4.63;;;6.90;76.40;;;;;;5051364;28;20445;-66
2022/04/09 07:39:14;;;;;;;8.63;2.15;;;7.10;77.00;;;;;;5051581;28;20041;-63
2022/04/09 07:41:40;;;;;;;4.70;1.20;;;7.10;76.30;;;;;;5051751;28;20502;-65
2022/04/09 07:44:06;;;;;;;10.52;1.33;;;7.20;71.60;;;;;;5050702;28;20048;-63
2022/04/09 07:46:32;;;;;;;6.63;1.48;;;7.20;72.20;;;;;;5050576;28;20153;-64
2022/04/09 07:48:57;;;;;;;8.00;1.25;;;7.20;73.30;;;;;;5050756;28;20537;-63
2022/04/09 07:51:23;;;;;;;5.88;2.67;;;7.20;72.70;;;;;;5050537;28;20051;-62
2022/04/09 07:53:49;;;;;;;4.03;1.13;;;6.90;72.50;;;;;;5049875;28;20102;-63
2022/04/09 07:56:14;;;;;;;1.92;0.80;;;6.90;73.10;;;;;;5050372;28;20055;-63
2022/04/09 07:58:43;;;;;;;7.63;1.80;;;6.90;73.10;;;;;;5050058;28;20132;-63
2022/04/09 08:01:09;;;;;;;10.10;1.58;;;6.90;73.00;;;;;;5050566;28;20053;-63
2022/04/09 08:03:34;;;;;;;4.50;1.33;;;6.90;72.60;;;;;;5050605;28;20069;-63
2022/04/09 08:06:00;;;;;;;5.10;1.38;;;7.00;73.60;;;;;;5049268;28;20045;-63
2022/04/09 08:08:25;;;;;;;4.88;1.27;;;6.90;73.40;;;;;;5051024;28;20057;-64
2022/04/09 08:10:51;;;;;;;5.65;1.45;;;7.00;73.90;;;;;;5050840;28;20057;-63
2022/04/09 08:13:18;;;;;;;5.68;1.73;;;7.10;73.50;;;;;;5050973;28;20127;-66
2022/04/09 08:15:44;;;;;;;8.60;1.45;;;7.10;73.40;;;;;;5050673;28;20036;-62
2022/04/09 08:18:11;;;;;;;11.75;1.88;;;7.20;73.70;;;;;;5050764;28;20406;-63
2022/04/09 08:20:37;;;;;;;11.77;2.05;;;7.20;73.90;;;;;;5050824;28;20091;-63
2022/04/09 08:23:04;;;;;;;13.15;3.63;;;7.30;73.10;;;;;;5050375;28;20400;-63
2022/04/09 08:25:29;;;;;;;15.18;3.67;;;7.30;74.20;;;;;;5050098;28;20045;-63
2022/04/09 08:27:55;;;;;;;12.30;2.30;;;7.40;74.30;;;;;;5049975;28;20051;-64
2022/04/09 08:30:24;;;;;;;15.73;2.33;;;7.50;73.80;;;;;;5050462;28;20049;-62
2022/04/09 08:32:50;;;;;;;17.08;2.08;;;7.60;74.20;;;;;;5050401;28;20041;-62
2022/04/09 08:35:16;;;;;;;16.35;2.17;;;7.60;74.20;;;;;;5049542;28;20044;-62
2022/04/09 08:37:42;;;;;;;8.55;2.63;;;7.70;73.80;;;;;;5038852;28;20041;-63
2022/04/09 08:40:14;;;;;;;14.00;2.65;;;7.70;73.80;;;;;;5038372;28;20106;-62
2022/04/09 08:42:39;;;;;;;11.32;2.03;;;7.60;74.40;;;;;;5048971;28;20548;-62
2022/04/09 08:45:06;;;;;;;17.55;2.05;;;7.70;74.50;;;;;;5050107;28;20049;-62
2022/04/09 08:47:36;;;;;;;14.35;1.83;;;7.50;71.00;;;;;;5049613;28;20049;-63
2022/04/09 08:50:03;;;;;;;15.88;3.25;;;7.50;70.40;;;;;;5047833;28;20048;-64
2022/04/09 08:52:29;;;;;;;13.77;1.90;;;7.60;69.10;;;;;;5034804;28;20041;-63
2022/04/09 08:54:55;;;;;;;14.73;3.53;;;7.70;70.50;;;;;;5049483;28;20048;-63
2022/04/09 08:57:21;;;;;;;9.05;1.83;;;7.90;70.90;;;;;;5049747;28;20507;-64
2022/04/09 08:59:47;;;;;;;13.57;2.47;;;8.00;69.90;;;;;;5049857;28;20041;-63
2022/04/09 09:02:13;;;;;;;12.80;1.83;;;8.00;69.90;;;;;;5049719;28;20037;-63
2022/04/09 09:04:39;;;;;;;8.40;1.65;;;8.10;69.80;;;;;;5050144;28;20063;-63
2022/04/09 09:07:24;;;;;;;9.80;1.73;;;8.10;70.90;;;;;;5049349;28;20248;-63
2022/04/09 09:09:51;;;;;;;9.88;1.80;;;8.00;72.40;;;;;;5042450;28;20053;-63
2022/04/09 09:12:30;;;;;;;5.53;1.10;;;8.00;71.80;;;;;;5048805;28;20486;-63
2022/04/09 09:14:57;;;;;;;7.75;1.42;;;7.90;69.40;;;;;;5048109;28;20044;-63
2022/04/09 09:17:28;;;;;;;10.52;1.48;;;7.90;69.20;;;;;;5050063;28;20052;-63
2022/04/09 09:19:54;;;;;;;7.00;1.10;;;8.10;69.70;;;;;;5048788;28;20619;-63
2022/04/09 09:22:20;;;;;;;7.03;1.42;;;8.10;69.00;;;;;;5049755;28;20055;-64
2022/04/09 09:25:05;;;;;;;11.40;1.88;;;8.20;68.00;;;;;;5048740;28;20106;-63
2022/04/09 09:27:31;;;;;;;9.50;3.03;;;8.10;67.10;;;;;;5029057;28;20100;-63
2022/04/09 09:29:57;;;;;;;15.70;1.85;;;8.10;67.50;;;;;;5045385;28;20048;-64
2022/04/09 09:32:26;;;;;;;10.45;2.25;;;8.20;67.90;;;;;;5039542;28;20040;-63
2022/04/09 09:34:56;;;;;;;3.90;0.95;;;8.30;67.70;;;;;;5043931;28;20107;-63
2022/04/09 09:37:24;;;;;;;10.38;1.92;;;8.40;68.10;;;;;;5032885;28;20081;-63
2022/04/09 09:39:50;;;;;;;10.10;1.63;;;8.50;68.70;;;;;;5037513;28;20099;-63
2022/04/09 09:42:20;;;;;;;11.25;1.52;;;8.50;66.10;;;;;;5045337;28;20551;-63
2022/04/09 09:44:46;;;;;;;24.52;3.38;;;8.60;66.80;;;;;;5043366;28;20123;-63
2022/04/09 09:47:15;;;;;;;11.38;1.95;;;8.60;67.90;;;;;;5047114;28;20033;-63
2022/04/09 09:49:56;;;;;;;13.52;3.78;;;8.60;67.70;;;;;;5047822;28;20149;-63
2022/04/09 09:52:30;;;;;;;8.20;2.05;;;8.80;67.30;;;;;;5048763;28;20048;-63
2022/04/09 09:55:00;;;;;;;7.00;1.65;;;8.70;67.40;;;;;;5046785;28;20048;-63
2022/04/09 09:57:28;;;;;;;11.68;2.15;;;8.30;71.00;;;;;;5046335;28;20045;-62
2022/04/09 10:00:04;;;;;;;8.70;1.90;;;8.00;72.10;;;;;;5043392;28;20037;-63
2022/04/09 10:02:30;;;;;;;11.63;2.20;;;7.70;73.20;;;;;;5048453;28;20045;-63
2022/04/09 10:04:56;;;;;;;9.20;1.65;;;7.30;74.80;;;;;;5047400;28;20040;-64
2022/04/09 10:07:24;;;;;;;12.70;2.33;;;7.10;75.60;;;;;;5051261;28;20048;-63
2022/04/09 10:09:50;;;;;;;14.75;2.53;;;7.00;76.50;;;;;;5051656;28;20057;-63
2022/04/09 10:12:25;;;;;;;10.05;2.50;;;7.00;76.90;;;;;;5051729;28;20669;-63
2022/04/09 10:14:58;;;;;;;9.80;2.13;;;7.00;77.80;;;;;;5052142;28;20041;-63
2022/04/09 10:17:26;;;;;;;7.43;1.92;;;7.10;79.40;;;;;;5052264;28;20445;-63
2022/04/09 10:19:57;;;;;;;8.13;2.05;;;7.30;78.90;;;;;;5051732;28;20615;-63
2022/04/09 10:22:29;;;;;;;8.07;2.53;;;7.40;77.60;;;;;;5051994;28;20079;-63
2022/04/09 10:24:55;;;;;;;;;;;7.60;77.30;;;;;;5052514;28;20126;-63
2022/04/09 10:27:38;;;;;;;11.90;2.25;;;7.60;77.70;;;;;;5051888;28;19920;-62
2022/04/09 10:30:28;;;;;;;8.35;1.85;;;7.60;76.70;;;;;;5051823;28;20091;-63
2022/04/09 10:32:59;;;;;;;13.52;1.95;;;7.60;76.60;;;;;;5051972;28;20048;-63
2022/04/09 10:35:44;;;;;;;8.03;2.37;;;7.60;74.80;;;;;;5052076;28;20512;-63
2022/04/09 10:38:09;;;;;;;5.38;1.50;;;7.40;74.20;;;;;;5051827;28;20299;-63
2022/04/09 10:40:45;;;;;;;7.15;1.55;;;7.40;73.50;;;;;;5051196;28;20048;-63
2022/04/09 10:43:37;;;;;;;4.50;1.10;;;7.50;73.80;;;;;;5051677;28;20075;-63
2022/04/09 10:46:02;;;;;;;7.28;1.13;;;7.60;73.30;;;;;;5048619;28;20057;-63
2022/04/09 10:48:36;;;;;;;3.75;0.85;;;7.80;71.80;;;;;;5052461;28;20110;-62
2022/04/09 10:51:12;;;;;;;8.70;1.08;;;7.90;71.00;;;;;;5052933;28;20098;-62
2022/04/09 10:53:39;;;;;;;3.88;1.30;;;7.90;69.40;;;;;;5051449;28;20044;-63
2022/04/09 10:56:30;;;;;;;8.73;1.17;;;7.90;69.80;;;;;;5051166;28;20045;-61
2022/04/09 10:59:16;;;;;;;9.33;1.00;;;7.90;70.50;;;;;;5049426;28;20037;-62
2022/04/09 11:01:48;;;;;;;5.05;0.75;;;8.10;67.50;;;;;;5050209;28;20057;-64
2022/04/09 11:04:29;;;;;;;;;;;8.20;68.90;;;;;;5046785;28;20285;-63
2022/04/09 11:07:19;;;;;;;7.50;1.30;;;8.10;65.50;;;;;;5051861;28;19925;-64
2022/04/09 11:09:52;;;;;;;2.67;0.85;;;8.00;67.10;;;;;;5051684;28;20110;-64
2022/04/09 11:12:42;;;;;;;6.13;1.13;;;8.00;67.70;;;;;;5051152;28;20041;-65
2022/04/09 11:15:14;;;;;;;6.60;1.35;;;8.00;69.70;;;;;;5049884;28;20576;-63
2022/04/09 11:17:47;;;;;;;8.23;1.10;;;8.20;67.10;;;;;;5065321;28;20048;-63
2022/04/09 11:20:18;;;;;;;9.27;1.30;;;8.20;66.20;;;;;;5051545;28;20405;-63
2022/04/09 11:22:50;;;;;;;8.13;1.60;;;8.30;67.30;;;;;;5051044;28;20040;-63
2022/04/09 11:25:21;;;;;;;9.68;1.45;;;8.30;67.70;;;;;;5049799;28;20142;-62
2022/04/09 11:27:46;;;;;;;4.32;1.00;;;8.60;69.70;;;;;;5049701;28;20048;-62
2022/04/09 11:30:12;;;;;;;4.55;0.85;;;8.30;71.00;;;;;;5050914;28;20060;-63
2022/04/09 11:32:38;;;;;;;3.72;1.13;;;8.30;70.60;;;;;;5050751;28;20045;-62
2022/04/09 11:35:10;;;;;;;2.33;0.65;;;7.90;71.40;;;;;;5051096;28;20574;-63
2022/04/09 11:37:48;;;;;;;2.20;0.85;;;7.70;71.10;;;;;;5051226;28;20128;-62
2022/04/09 11:40:15;;;;;;;4.15;0.60;;;7.30;73.00;;;;;;5049828;28;20401;-64
2022/04/09 11:42:49;;;;;;;2.78;0.85;;;6.90;74.70;;;;;;5050603;28;20060;-63
2022/04/09 11:45:27;;;;;;;5.10;1.73;;;6.60;77.60;;;;;;5048270;28;20049;-65
2022/04/09 11:47:54;;;;;;;9.40;2.50;;;6.60;76.70;;;;;;5049731;28;20047;-64
2022/04/09 11:50:20;;;;;;;4.30;1.33;;;6.50;77.50;;;;;;5050830;28;20083;-64
2022/04/09 11:52:46;;;;;;;4.75;1.10;;;6.50;77.90;;;;;;5050719;28;20045;-65
2022/04/09 11:55:16;;;;;;;4.45;2.00;;;6.60;76.90;;;;;;5049515;28;20041;-64
2022/04/09 11:57:52;;;;;;;4.97;1.30;;;6.70;76.80;;;;;;5049907;28;20079;-65
2022/04/09 12:00:23;;;;;;;4.43;1.20;;;7.00;76.40;;;;;;5049632;28;20079;-64
2022/04/09 12:02:49;;;;;;;7.63;1.08;;;7.30;75.10;;;;;;5050343;28;20467;-65
2022/04/09 12:05:15;;;;;;;2.38;0.90;;;7.30;72.90;;;;;;5049918;28;20036;-64
2022/04/09 12:07:42;;;;;;;2.53;0.70;;;7.50;72.00;;;;;;5049674;28;20389;-65
2022/04/09 12:10:28;;;;;;;4.95;0.85;;;7.60;71.90;;;;;;5041747;28;20084;-64
2022/04/09 12:13:08;;;;;;;4.07;0.68;;;7.70;70.80;;;;;;5049548;28;20063;-64
2022/04/09 12:15:34;;;;;;;6.38;1.20;;;7.90;70.30;;;;;;5049980;28;20067;-64
2022/04/09 12:18:04;;;;;;;5.15;2.13;;;8.00;70.30;;;;;;5050320;28;20112;-64
2022/04/09 12:20:40;;;;;;;4.78;1.00;;;8.10;69.50;;;;;;5050641;28;20123;-64
2022/04/09 12:23:06;;;;;;;5.63;1.08;;;8.10;68.60;;;;;;5044662;28;20045;-64
2022/04/09 12:25:33;;;;;;;6.65;1.33;;;8.20;67.60;;;;;;5049820;28;20071;-64
2022/04/09 12:27:59;;;;;;;9.85;1.38;;;8.30;69.00;;;;;;5048710;28;20127;-64
2022/04/09 12:30:41;;;;;;;5.80;1.10;;;8.60;67.90;;;;;;5048491;28;20041;-63
2022/04/09 12:33:11;;;;;;;4.15;1.00;;;8.70;68.70;;;;;;5050400;28;20446;-63
2022/04/09 12:35:37;;;;;;;12.55;2.58;;;8.80;68.50;;;;;;5049936;28;20053;-63
2022/04/09 12:38:03;;;;;;;7.35;1.20;;;8.60;66.70;;;;;;5049667;28;20460;-64
2022/04/09 12:40:30;;;;;;;1.55;0.52;;;8.40;66.60;;;;;;5049265;28;20049;-64
2022/04/09 12:42:56;;;;;;;1.50;0.28;;;8.20;67.00;;;;;;5048358;28;20049;-64
2022/04/09 12:45:24;;;;;;;1.75;0.50;;;8.10;64.20;;;;;;5050030;28;20061;-65
2022/04/09 12:48:11;;;;;;;3.67;0.40;;;8.10;65.20;;;;;;5049992;28;20131;-65
2022/04/09 12:50:37;;;;;;;1.65;0.40;;;8.10;66.10;;;;;;5050134;28;20123;-65
2022/04/09 12:53:06;;;;;;;2.78;0.60;;;8.10;65.10;;;;;;5049152;28;20132;-65
2022/04/09 12:55:33;;;;;;;6.97;0.63;;;8.10;65.40;;;;;;5049922;28;20122;-64
2022/04/09 12:58:00;;;;;;;5.47;2.15;;;8.20;64.80;;;;;;5037661;28;20377;-62